sensor_id;sensor_type;location;lat;lon;timestamp;P1;durP1;ratioP1;P2;durP2;ratioP2
19842;SDS011;10082;51.038;6.992;2022-11-14T00:01:30;11.30;;;10.20;;
19842;SDS011;10082;51.038;6.992;2022-11-14T00:04:16;11.17;;;10.03;;
19842;SDS011;10082;51.038;6.992;2022-11-14T00:07:02;11.77;;;10.77;;
19842;SDS011;10082;51.038;6.992;2022-11-14T00:09:48;11.60;;;10.47;;
19842;SDS011;10082;51.038;6.992;2022-11-14T00:12:35;13.03;;;11.17;;
19842;SDS011;10082;51.038;6.992;2022-11-14T00:15:20;11.97;;;10.87;;
19842;SDS011;10082;51.038;6.992;2022-11-14T00:18:06;11.40;;;10.30;;
19842;SDS011;10082;51.038;6.992;2022-11-14T00:20:52;10.87;;;9.77;;
19842;SDS011;10082;51.038;6.992;2022-11-14T00:23:38;12.80;;;11.53;;
19842;SDS011;10082;51.038;6.992;2022-11-14T00:26:23;11.40;;;10.40;;
19842;SDS011;10082;51.038;6.992;2022-11-14T00:29:10;12.77;;;11.07;;
19842;SDS011;10082;51.038;6.992;2022-11-14T00:58:29;10.53;;;9.53;;
19842;SDS011;10082;51.038;6.992;2022-11-14T01:01:15;10.03;;;9.13;;
19842;SDS011;10082;51.038;6.992;2022-11-14T01:04:01;10.37;;;9.33;;
19842;SDS011;10082;51.038;6.992;2022-11-14T01:06:46;9.63;;;8.63;;
19842;SDS011;10082;51.038;6.992;2022-11-14T01:09:32;10.37;;;9.37;;
19842;SDS011;10082;51.038;6.992;2022-11-14T01:12:18;11.90;;;10.30;;
19842;SDS011;10082;51.038;6.992;2022-11-14T01:15:05;10.33;;;9.33;;
19842;SDS011;10082;51.038;6.992;2022-11-14T01:17:52;10.03;;;9.13;;
19842;SDS011;10082;51.038;6.992;2022-11-14T01:20:37;12.13;;;10.90;;
19842;SDS011;10082;51.038;6.992;2022-11-14T01:23:23;10.63;;;9.63;;
19842;SDS011;10082;51.038;6.992;2022-11-14T01:26:10;10.43;;;9.43;;
19842;SDS011;10082;51.038;6.992;2022-11-14T01:48:13;9.63;;;8.73;;
19842;SDS011;10082;51.038;6.992;2022-11-14T01:51:16;9.93;;;8.93;;
19842;SDS011;10082;51.038;6.992;2022-11-14T01:54:08;9.33;;;8.53;;
19842;SDS011;10082;51.038;6.992;2022-11-14T01:56:58;9.67;;;8.77;;
19842;SDS011;10082;51.038;6.992;2022-11-14T01:59:46;9.00;;;8.20;;
19842;SDS011;10082;51.038;6.992;2022-11-14T02:02:34;9.90;;;8.90;;
19842;SDS011;10082;51.038;6.992;2022-11-14T02:05:23;9.30;;;8.43;;
19842;SDS011;10082;51.038;6.992;2022-11-14T02:08:09;9.50;;;8.70;;
19842;SDS011;10082;51.038;6.992;2022-11-14T02:10:57;8.73;;;7.90;;
19842;SDS011;10082;51.038;6.992;2022-11-14T02:13:43;9.20;;;8.30;;
19842;SDS011;10082;51.038;6.992;2022-11-14T02:31:40;10.17;;;8.43;;
19842;SDS011;10082;51.038;6.992;2022-11-14T02:34:25;9.20;;;8.30;;
19842;SDS011;10082;51.038;6.992;2022-11-14T02:37:11;9.43;;;8.60;;
19842;SDS011;10082;51.038;6.992;2022-11-14T02:39:57;8.80;;;8.00;;
19842;SDS011;10082;51.038;6.992;2022-11-14T02:42:42;8.97;;;8.17;;
19842;SDS011;10082;51.038;6.992;2022-11-14T02:45:28;8.37;;;7.60;;
19842;SDS011;10082;51.038;6.992;2022-11-14T02:48:15;9.60;;;8.20;;
19842;SDS011;10082;51.038;6.992;2022-11-14T02:51:01;9.40;;;8.40;;
19842;SDS011;10082;51.038;6.992;2022-11-14T02:53:46;9.20;;;8.30;;
19842;SDS011;10082;51.038;6.992;2022-11-14T02:56:31;8.90;;;8.10;;
19842;SDS011;10082;51.038;6.992;2022-11-14T02:59:17;8.70;;;7.80;;
19842;SDS011;10082;51.038;6.992;2022-11-14T03:02:03;9.20;;;8.37;;
19842;SDS011;10082;51.038;6.992;2022-11-14T03:04:50;9.27;;;8.37;;
19842;SDS011;10082;51.038;6.992;2022-11-14T03:07:35;8.93;;;8.13;;
19842;SDS011;10082;51.038;6.992;2022-11-14T03:10:21;9.07;;;8.17;;
19842;SDS011;10082;51.038;6.992;2022-11-14T03:13:07;9.17;;;8.33;;
19842;SDS011;10082;51.038;6.992;2022-11-14T03:15:53;8.77;;;7.97;;
19842;SDS011;10082;51.038;6.992;2022-11-14T03:48:58;7.93;;;7.13;;
19842;SDS011;10082;51.038;6.992;2022-11-14T03:51:43;7.37;;;6.77;;
19842;SDS011;10082;51.038;6.992;2022-11-14T03:54:29;7.30;;;6.60;;
19842;SDS011;10082;51.038;6.992;2022-11-14T03:57:14;7.17;;;6.47;;
19842;SDS011;10082;51.038;6.992;2022-11-14T04:00:00;6.60;;;5.97;;
19842;SDS011;10082;51.038;6.992;2022-11-14T04:02:45;6.30;;;5.70;;
19842;SDS011;10082;51.038;6.992;2022-11-14T04:05:33;7.13;;;6.23;;
19842;SDS011;10082;51.038;6.992;2022-11-14T04:08:18;7.17;;;6.57;;
19842;SDS011;10082;51.038;6.992;2022-11-14T04:11:04;7.43;;;6.63;;
19842;SDS011;10082;51.038;6.992;2022-11-14T04:13:49;7.57;;;6.87;;
19842;SDS011;10082;51.038;6.992;2022-11-14T04:16:35;6.83;;;6.17;;
19842;SDS011;10082;51.038;6.992;2022-11-14T04:19:20;7.43;;;6.73;;
19842;SDS011;10082;51.038;6.992;2022-11-14T04:22:07;6.77;;;6.17;;
19842;SDS011;10082;51.038;6.992;2022-11-14T04:24:54;6.77;;;6.07;;
19842;SDS011;10082;51.038;6.992;2022-11-14T04:27:39;6.93;;;6.33;;
19842;SDS011;10082;51.038;6.992;2022-11-14T04:30:24;7.13;;;6.53;;
19842;SDS011;10082;51.038;6.992;2022-11-14T04:33:10;7.97;;;6.60;;
19842;SDS011;10082;51.038;6.992;2022-11-14T04:35:56;6.90;;;6.20;;
19842;SDS011;10082;51.038;6.992;2022-11-14T04:38:43;7.40;;;6.70;;
19842;SDS011;10082;51.038;6.992;2022-11-14T04:41:28;7.23;;;6.50;;
19842;SDS011;10082;51.038;6.992;2022-11-14T04:44:14;6.73;;;6.13;;
19842;SDS011;10082;51.038;6.992;2022-11-14T04:47:00;6.60;;;6.00;;
19842;SDS011;10082;51.038;6.992;2022-11-14T04:49:45;6.17;;;5.57;;
19842;SDS011;10082;51.038;6.992;2022-11-14T04:52:31;6.53;;;5.93;;
19842;SDS011;10082;51.038;6.992;2022-11-14T04:55:18;6.80;;;6.20;;
19842;SDS011;10082;51.038;6.992;2022-11-14T04:58:03;6.57;;;5.97;;
19842;SDS011;10082;51.038;6.992;2022-11-14T05:00:49;7.27;;;6.30;;
19842;SDS011;10082;51.038;6.992;2022-11-14T05:03:34;6.90;;;6.20;;
19842;SDS011;10082;51.038;6.992;2022-11-14T05:06:20;6.77;;;6.07;;
19842;SDS011;10082;51.038;6.992;2022-11-14T05:09:06;6.57;;;5.97;;
19842;SDS011;10082;51.038;6.992;2022-11-14T05:11:53;6.43;;;5.53;;
19842;SDS011;10082;51.038;6.992;2022-11-14T05:14:38;6.77;;;6.17;;
19842;SDS011;10082;51.038;6.992;2022-11-14T05:17:24;6.70;;;6.10;;
19842;SDS011;10082;51.038;6.992;2022-11-14T05:20:10;7.00;;;6.30;;
19842;SDS011;10082;51.038;6.992;2022-11-14T05:22:56;6.90;;;6.20;;
19842;SDS011;10082;51.038;6.992;2022-11-14T05:25:41;6.70;;;6.00;;
19842;SDS011;10082;51.038;6.992;2022-11-14T05:28:28;6.23;;;5.63;;
19842;SDS011;10082;51.038;6.992;2022-11-14T05:31:15;6.50;;;5.90;;
19842;SDS011;10082;51.038;6.992;2022-11-14T05:34:00;6.27;;;5.67;;
19842;SDS011;10082;51.038;6.992;2022-11-14T05:36:46;7.27;;;5.70;;
19842;SDS011;10082;51.038;6.992;2022-11-14T05:39:31;6.40;;;5.80;;
19842;SDS011;10082;51.038;6.992;2022-11-14T05:42:16;7.70;;;6.33;;
19842;SDS011;10082;51.038;6.992;2022-11-14T05:45:04;7.27;;;6.57;;
19842;SDS011;10082;51.038;6.992;2022-11-14T05:47:51;7.33;;;6.63;;
19842;SDS011;10082;51.038;6.992;2022-11-14T05:50:37;7.87;;;7.07;;
19842;SDS011;10082;51.038;6.992;2022-11-14T05:53:22;7.50;;;6.80;;
19842;SDS011;10082;51.038;6.992;2022-11-14T05:56:09;7.33;;;6.63;;
19842;SDS011;10082;51.038;6.992;2022-11-14T05:58:56;7.27;;;6.57;;
19842;SDS011;10082;51.038;6.992;2022-11-14T06:01:43;7.20;;;6.50;;
19842;SDS011;10082;51.038;6.992;2022-11-14T06:04:28;7.57;;;6.93;;
19842;SDS011;10082;51.038;6.992;2022-11-14T06:07:14;7.63;;;6.93;;
19842;SDS011;10082;51.038;6.992;2022-11-14T06:10:00;8.47;;;7.53;;
19842;SDS011;10082;51.038;6.992;2022-11-14T06:12:46;8.60;;;7.47;;
19842;SDS011;10082;51.038;6.992;2022-11-14T06:15:32;8.13;;;7.33;;
19842;SDS011;10082;51.038;6.992;2022-11-14T06:18:19;8.13;;;7.33;;
19842;SDS011;10082;51.038;6.992;2022-11-14T06:21:05;7.90;;;7.10;;
19842;SDS011;10082;51.038;6.992;2022-11-14T06:23:51;7.53;;;6.83;;
19842;SDS011;10082;51.038;6.992;2022-11-14T06:26:40;7.47;;;6.77;;
19842;SDS011;10082;51.038;6.992;2022-11-14T06:29:32;7.70;;;6.90;;
19842;SDS011;10082;51.038;6.992;2022-11-14T06:32:17;8.90;;;7.27;;
19842;SDS011;10082;51.038;6.992;2022-11-14T06:35:05;7.70;;;7.00;;
19842;SDS011;10082;51.038;6.992;2022-11-14T06:37:52;7.07;;;6.47;;
19842;SDS011;10082;51.038;6.992;2022-11-14T06:40:39;7.30;;;6.60;;
19842;SDS011;10082;51.038;6.992;2022-11-14T06:43:24;7.97;;;7.17;;
19842;SDS011;10082;51.038;6.992;2022-11-14T06:46:11;8.03;;;7.30;;
19842;SDS011;10082;51.038;6.992;2022-11-14T06:48:58;8.97;;;7.43;;
19842;SDS011;10082;51.038;6.992;2022-11-14T06:51:46;8.03;;;7.00;;
19842;SDS011;10082;51.038;6.992;2022-11-14T06:54:32;7.43;;;6.73;;
19842;SDS011;10082;51.038;6.992;2022-11-14T06:57:17;7.80;;;7.00;;
19842;SDS011;10082;51.038;6.992;2022-11-14T07:00:03;7.37;;;6.57;;
19842;SDS011;10082;51.038;6.992;2022-11-14T07:02:55;7.63;;;6.93;;
19842;SDS011;10082;51.038;6.992;2022-11-14T07:05:41;7.47;;;6.77;;
19842;SDS011;10082;51.038;6.992;2022-11-14T07:08:28;11.30;;;10.40;;
19842;SDS011;10082;51.038;6.992;2022-11-14T07:11:15;7.03;;;6.43;;
19842;SDS011;10082;51.038;6.992;2022-11-14T07:14:07;8.07;;;6.13;;
19842;SDS011;10082;51.038;6.992;2022-11-14T07:16:53;6.77;;;6.17;;
19842;SDS011;10082;51.038;6.992;2022-11-14T07:19:39;6.80;;;6.17;;
19842;SDS011;10082;51.038;6.992;2022-11-14T07:22:24;6.50;;;5.90;;
19842;SDS011;10082;51.038;6.992;2022-11-14T07:25:12;6.40;;;5.80;;
19842;SDS011;10082;51.038;6.992;2022-11-14T07:27:58;6.20;;;5.60;;
19842;SDS011;10082;51.038;6.992;2022-11-14T07:30:43;6.40;;;5.83;;
19842;SDS011;10082;51.038;6.992;2022-11-14T07:33:29;6.73;;;5.80;;
19842;SDS011;10082;51.038;6.992;2022-11-14T07:36:15;6.90;;;6.20;;
19842;SDS011;10082;51.038;6.992;2022-11-14T07:39:01;6.07;;;5.47;;
19842;SDS011;10082;51.038;6.992;2022-11-14T07:41:49;6.77;;;6.07;;
19842;SDS011;10082;51.038;6.992;2022-11-14T07:44:34;6.10;;;5.50;;
19842;SDS011;10082;51.038;6.992;2022-11-14T07:47:20;6.13;;;5.43;;
19842;SDS011;10082;51.038;6.992;2022-11-14T07:50:06;6.63;;;6.03;;
19842;SDS011;10082;51.038;6.992;2022-11-14T07:52:53;6.90;;;6.20;;
19842;SDS011;10082;51.038;6.992;2022-11-14T07:55:40;7.00;;;6.30;;
19842;SDS011;10082;51.038;6.992;2022-11-14T07:58:27;6.90;;;6.30;;
19842;SDS011;10082;51.038;6.992;2022-11-14T08:01:13;9.13;;;7.03;;
19842;SDS011;10082;51.038;6.992;2022-11-14T08:03:59;8.43;;;7.53;;
19842;SDS011;10082;51.038;6.992;2022-11-14T08:06:47;8.47;;;7.67;;
19842;SDS011;10082;51.038;6.992;2022-11-14T08:09:33;8.20;;;7.40;;
19842;SDS011;10082;51.038;6.992;2022-11-14T08:12:19;8.10;;;7.30;;
19842;SDS011;10082;51.038;6.992;2022-11-14T08:15:07;8.37;;;7.57;;
19842;SDS011;10082;51.038;6.992;2022-11-14T08:17:56;9.20;;;8.10;;
19842;SDS011;10082;51.038;6.992;2022-11-14T08:20:42;10.40;;;8.83;;
19842;SDS011;10082;51.038;6.992;2022-11-14T08:23:27;10.03;;;8.73;;
19842;SDS011;10082;51.038;6.992;2022-11-14T08:26:13;9.93;;;8.97;;
19842;SDS011;10082;51.038;6.992;2022-11-14T08:28:59;11.03;;;9.93;;
19842;SDS011;10082;51.038;6.992;2022-11-14T08:31:46;10.87;;;9.73;;
19842;SDS011;10082;51.038;6.992;2022-11-14T08:34:33;10.33;;;9.37;;
19842;SDS011;10082;51.038;6.992;2022-11-14T08:37:19;10.63;;;9.63;;
19842;SDS011;10082;51.038;6.992;2022-11-14T08:40:05;10.77;;;9.67;;
19842;SDS011;10082;51.038;6.992;2022-11-14T08:42:54;11.70;;;10.50;;
19842;SDS011;10082;51.038;6.992;2022-11-14T08:45:43;11.03;;;9.93;;
19842;SDS011;10082;51.038;6.992;2022-11-14T08:48:31;11.63;;;10.43;;
19842;SDS011;10082;51.038;6.992;2022-11-14T08:51:17;12.00;;;10.80;;
19842;SDS011;10082;51.038;6.992;2022-11-14T08:54:03;14.83;;;12.23;;
19842;SDS011;10082;51.038;6.992;2022-11-14T08:56:49;17.83;;;13.47;;
19842;SDS011;10082;51.038;6.992;2022-11-14T08:59:35;14.97;;;13.37;;
19842;SDS011;10082;51.038;6.992;2022-11-14T09:02:21;16.43;;;13.73;;
19842;SDS011;10082;51.038;6.992;2022-11-14T09:05:09;15.53;;;13.37;;
19842;SDS011;10082;51.038;6.992;2022-11-14T09:07:57;17.70;;;14.20;;
19842;SDS011;10082;51.038;6.992;2022-11-14T09:10:43;16.10;;;14.33;;
19842;SDS011;10082;51.038;6.992;2022-11-14T09:13:30;19.03;;;15.20;;
19842;SDS011;10082;51.038;6.992;2022-11-14T09:16:16;17.20;;;13.73;;
19842;SDS011;10082;51.038;6.992;2022-11-14T09:19:03;16.80;;;14.23;;
19842;SDS011;10082;51.038;6.992;2022-11-14T09:21:50;18.43;;;14.07;;
19842;SDS011;10082;51.038;6.992;2022-11-14T09:24:35;16.70;;;13.97;;
19842;SDS011;10082;51.038;6.992;2022-11-14T09:27:22;16.97;;;13.70;;
19842;SDS011;10082;51.038;6.992;2022-11-14T09:30:10;14.27;;;12.30;;
19842;SDS011;10082;51.038;6.992;2022-11-14T09:32:58;16.00;;;12.47;;
19842;SDS011;10082;51.038;6.992;2022-11-14T09:35:44;15.20;;;13.57;;
19842;SDS011;10082;51.038;6.992;2022-11-14T09:38:32;14.60;;;12.33;;
19842;SDS011;10082;51.038;6.992;2022-11-14T09:41:21;16.00;;;13.60;;
19842;SDS011;10082;51.038;6.992;2022-11-14T09:44:27;15.00;;;12.97;;
19842;SDS011;10082;51.038;6.992;2022-11-14T09:47:24;15.63;;;12.67;;
19842;SDS011;10082;51.038;6.992;2022-11-14T09:50:15;15.97;;;13.23;;
19842;SDS011;10082;51.038;6.992;2022-11-14T09:53:04;15.23;;;12.73;;
19842;SDS011;10082;51.038;6.992;2022-11-14T09:55:56;15.00;;;13.40;;
19842;SDS011;10082;51.038;6.992;2022-11-14T09:58:42;15.20;;;13.60;;
19842;SDS011;10082;51.038;6.992;2022-11-14T10:01:31;15.33;;;13.67;;
19842;SDS011;10082;51.038;6.992;2022-11-14T10:04:27;16.77;;;13.37;;
19842;SDS011;10082;51.038;6.992;2022-11-14T10:07:25;16.13;;;13.70;;
19842;SDS011;10082;51.038;6.992;2022-11-14T10:10:23;14.80;;;12.90;;
19842;SDS011;10082;51.038;6.992;2022-11-14T10:13:28;15.90;;;13.53;;
19842;SDS011;10082;51.038;6.992;2022-11-14T10:16:23;14.13;;;11.90;;
19842;SDS011;10082;51.038;6.992;2022-11-14T10:19:21;15.47;;;13.20;;
19842;SDS011;10082;51.038;6.992;2022-11-14T10:22:18;14.40;;;12.03;;
19842;SDS011;10082;51.038;6.992;2022-11-14T10:25:18;14.77;;;11.70;;
19842;SDS011;10082;51.038;6.992;2022-11-14T10:28:13;13.60;;;12.00;;
19842;SDS011;10082;51.038;6.992;2022-11-14T10:31:18;14.10;;;12.50;;
19842;SDS011;10082;51.038;6.992;2022-11-14T10:34:10;14.07;;;12.17;;
19842;SDS011;10082;51.038;6.992;2022-11-14T10:37:04;12.80;;;11.00;;
19842;SDS011;10082;51.038;6.992;2022-11-14T10:40:01;14.45;;;11.90;;
19842;SDS011;10082;51.038;6.992;2022-11-14T10:42:59;15.23;;;12.05;;
19842;SDS011;10082;51.038;6.992;2022-11-14T10:45:52;13.63;;;12.20;;
19842;SDS011;10082;51.038;6.992;2022-11-14T10:48:43;13.35;;;11.95;;
19842;SDS011;10082;51.038;6.992;2022-11-14T10:51:32;13.05;;;11.57;;
19842;SDS011;10082;51.038;6.992;2022-11-14T10:54:22;13.60;;;12.23;;
19842;SDS011;10082;51.038;6.992;2022-11-14T10:57:15;13.53;;;11.87;;
19842;SDS011;10082;51.038;6.992;2022-11-14T11:00:07;13.20;;;11.80;;
19842;SDS011;10082;51.038;6.992;2022-11-14T11:02:56;14.50;;;12.10;;
19842;SDS011;10082;51.038;6.992;2022-11-14T11:05:45;13.50;;;12.07;;
19842;SDS011;10082;51.038;6.992;2022-11-14T11:08:37;14.02;;;12.52;;
19842;SDS011;10082;51.038;6.992;2022-11-14T11:11:45;13.77;;;12.38;;
19842;SDS011;10082;51.038;6.992;2022-11-14T11:14:37;13.90;;;11.82;;
19842;SDS011;10082;51.038;6.992;2022-11-14T11:17:24;13.43;;;12.02;;
19842;SDS011;10082;51.038;6.992;2022-11-14T11:20:29;14.35;;;12.20;;
19842;SDS011;10082;51.038;6.992;2022-11-14T11:23:21;13.15;;;11.82;;
19842;SDS011;10082;51.038;6.992;2022-11-14T11:26:15;13.60;;;12.18;;
19842;SDS011;10082;51.038;6.992;2022-11-14T11:29:04;12.95;;;11.65;;
19842;SDS011;10082;51.038;6.992;2022-11-14T11:31:53;13.25;;;11.85;;
19842;SDS011;10082;51.038;6.992;2022-11-14T11:34:41;13.23;;;11.93;;
19842;SDS011;10082;51.038;6.992;2022-11-14T11:37:27;12.65;;;11.32;;
19842;SDS011;10082;51.038;6.992;2022-11-14T11:40:19;12.77;;;11.48;;
19842;SDS011;10082;51.038;6.992;2022-11-14T11:43:09;13.38;;;11.98;;
19842;SDS011;10082;51.038;6.992;2022-11-14T11:45:59;13.18;;;11.32;;
19842;SDS011;10082;51.038;6.992;2022-11-14T11:48:50;13.95;;;11.95;;
19842;SDS011;10082;51.038;6.992;2022-11-14T11:51:44;13.32;;;11.55;;
19842;SDS011;10082;51.038;6.992;2022-11-14T11:54:34;13.32;;;12.02;;
19842;SDS011;10082;51.038;6.992;2022-11-14T11:57:32;13.00;;;11.63;;
19842;SDS011;10082;51.038;6.992;2022-11-14T12:00:21;14.98;;;11.73;;
19842;SDS011;10082;51.038;6.992;2022-11-14T12:03:08;12.43;;;11.20;;
19842;SDS011;10082;51.038;6.992;2022-11-14T12:06:02;13.60;;;11.93;;
19842;SDS011;10082;51.038;6.992;2022-11-14T12:09:05;13.93;;;12.35;;
19842;SDS011;10082;51.038;6.992;2022-11-14T12:12:00;13.98;;;12.48;;
19842;SDS011;10082;51.038;6.992;2022-11-14T12:14:53;13.43;;;12.13;;
19842;SDS011;10082;51.038;6.992;2022-11-14T12:17:53;14.35;;;12.32;;
19842;SDS011;10082;51.038;6.992;2022-11-14T12:21:09;13.70;;;12.30;;
19842;SDS011;10082;51.038;6.992;2022-11-14T12:24:11;14.25;;;12.75;;
19842;SDS011;10082;51.038;6.992;2022-11-14T12:27:21;15.20;;;12.57;;
19842;SDS011;10082;51.038;6.992;2022-11-14T12:30:17;14.90;;;13.30;;
19842;SDS011;10082;51.038;6.992;2022-11-14T12:33:07;15.82;;;13.15;;
19842;SDS011;10082;51.038;6.992;2022-11-14T12:35:56;13.75;;;12.30;;
19842;SDS011;10082;51.038;6.992;2022-11-14T12:38:45;14.98;;;13.23;;
19842;SDS011;10082;51.038;6.992;2022-11-14T12:41:33;15.32;;;13.65;;
19842;SDS011;10082;51.038;6.992;2022-11-14T12:44:30;16.02;;;13.57;;
19842;SDS011;10082;51.038;6.992;2022-11-14T12:47:20;15.85;;;13.50;;
19842;SDS011;10082;51.038;6.992;2022-11-14T12:50:29;14.73;;;12.80;;
19842;SDS011;10082;51.038;6.992;2022-11-14T12:59:49;15.77;;;13.63;;
19842;SDS011;10082;51.038;6.992;2022-11-14T13:02:52;15.60;;;13.70;;
19842;SDS011;10082;51.038;6.992;2022-11-14T13:05:53;15.68;;;13.60;;
19842;SDS011;10082;51.038;6.992;2022-11-14T13:08:59;15.35;;;13.70;;
19842;SDS011;10082;51.038;6.992;2022-11-14T13:12:17;15.77;;;14.02;;
19842;SDS011;10082;51.038;6.992;2022-11-14T13:15:30;15.02;;;13.43;;
19842;SDS011;10082;51.038;6.992;2022-11-14T13:18:36;15.05;;;12.30;;
19842;SDS011;10082;51.038;6.992;2022-11-14T13:25:19;15.10;;;13.50;;
19842;SDS011;10082;51.038;6.992;2022-11-14T13:31:45;15.23;;;13.63;;
19842;SDS011;10082;51.038;6.992;2022-11-14T13:34:39;14.10;;;12.13;;
19842;SDS011;10082;51.038;6.992;2022-11-14T13:40:37;13.00;;;11.70;;
19842;SDS011;10082;51.038;6.992;2022-11-14T13:43:29;13.85;;;12.07;;
19842;SDS011;10082;51.038;6.992;2022-11-14T13:46:33;13.02;;;11.63;;
19842;SDS011;10082;51.038;6.992;2022-11-14T13:49:37;14.02;;;12.63;;
19842;SDS011;10082;51.038;6.992;2022-11-14T13:52:39;13.52;;;12.00;;
19842;SDS011;10082;51.038;6.992;2022-11-14T13:55:28;12.75;;;11.45;;
19842;SDS011;10082;51.038;6.992;2022-11-14T13:58:25;13.70;;;12.23;;
19842;SDS011;10082;51.038;6.992;2022-11-14T14:01:25;13.85;;;12.35;;
19842;SDS011;10082;51.038;6.992;2022-11-14T14:04:26;13.88;;;12.48;;
19842;SDS011;10082;51.038;6.992;2022-11-14T14:07:26;14.75;;;12.85;;
19842;SDS011;10082;51.038;6.992;2022-11-14T14:10:21;14.18;;;12.68;;
19842;SDS011;10082;51.038;6.992;2022-11-14T14:13:19;14.30;;;12.15;;
19842;SDS011;10082;51.038;6.992;2022-11-14T14:16:16;14.52;;;13.02;;
19842;SDS011;10082;51.038;6.992;2022-11-14T14:19:11;13.77;;;12.48;;
19842;SDS011;10082;51.038;6.992;2022-11-14T14:22:05;14.80;;;13.20;;
19842;SDS011;10082;51.038;6.992;2022-11-14T14:24:58;14.40;;;12.85;;
19842;SDS011;10082;51.038;6.992;2022-11-14T14:27:59;14.38;;;12.88;;
19842;SDS011;10082;51.038;6.992;2022-11-14T14:30:59;13.88;;;12.35;;
19842;SDS011;10082;51.038;6.992;2022-11-14T14:33:46;14.10;;;12.43;;
19842;SDS011;10082;51.038;6.992;2022-11-14T14:36:33;13.80;;;12.50;;
19842;SDS011;10082;51.038;6.992;2022-11-14T14:39:19;14.48;;;12.98;;
19842;SDS011;10082;51.038;6.992;2022-11-14T14:42:10;14.13;;;12.73;;
19842;SDS011;10082;51.038;6.992;2022-11-14T14:44:57;14.02;;;12.48;;
19842;SDS011;10082;51.038;6.992;2022-11-14T14:47:45;15.65;;;12.93;;
19842;SDS011;10082;51.038;6.992;2022-11-14T14:50:34;13.75;;;12.35;;
19842;SDS011;10082;51.038;6.992;2022-11-14T14:53:25;14.30;;;12.80;;
19842;SDS011;10082;51.038;6.992;2022-11-14T14:56:16;15.50;;;13.68;;
19842;SDS011;10082;51.038;6.992;2022-11-14T14:59:18;13.77;;;12.27;;
19842;SDS011;10082;51.038;6.992;2022-11-14T15:02:10;14.68;;;13.18;;
19842;SDS011;10082;51.038;6.992;2022-11-14T15:05:01;15.23;;;12.55;;
19842;SDS011;10082;51.038;6.992;2022-11-14T15:07:47;15.65;;;13.13;;
19842;SDS011;10082;51.038;6.992;2022-11-14T15:10:35;14.30;;;12.80;;
19842;SDS011;10082;51.038;6.992;2022-11-14T15:13:22;13.77;;;12.38;;
19842;SDS011;10082;51.038;6.992;2022-11-14T15:16:10;15.20;;;13.48;;
19842;SDS011;10082;51.038;6.992;2022-11-14T15:18:56;14.30;;;12.43;;
19842;SDS011;10082;51.038;6.992;2022-11-14T15:21:43;14.10;;;12.63;;
19842;SDS011;10082;51.038;6.992;2022-11-14T15:24:29;13.77;;;12.38;;
19842;SDS011;10082;51.038;6.992;2022-11-14T15:27:17;14.25;;;12.75;;
19842;SDS011;10082;51.038;6.992;2022-11-14T15:30:04;12.98;;;11.73;;
19842;SDS011;10082;51.038;6.992;2022-11-14T15:32:55;14.07;;;12.57;;
19842;SDS011;10082;51.038;6.992;2022-11-14T15:35:44;15.18;;;11.93;;
19842;SDS011;10082;51.038;6.992;2022-11-14T15:38:30;13.25;;;11.93;;
19842;SDS011;10082;51.038;6.992;2022-11-14T15:41:17;12.82;;;11.57;;
19842;SDS011;10082;51.038;6.992;2022-11-14T15:44:04;13.82;;;12.43;;
19842;SDS011;10082;51.038;6.992;2022-11-14T15:46:51;13.48;;;11.85;;
19842;SDS011;10082;51.038;6.992;2022-11-14T15:49:38;13.95;;;12.55;;
19842;SDS011;10082;51.038;6.992;2022-11-14T15:52:24;13.27;;;11.88;;
19842;SDS011;10082;51.038;6.992;2022-11-14T15:55:17;13.75;;;12.27;;
19842;SDS011;10082;51.038;6.992;2022-11-14T15:58:06;13.02;;;11.82;;
19842;SDS011;10082;51.038;6.992;2022-11-14T16:00:52;13.20;;;11.82;;
19842;SDS011;10082;51.038;6.992;2022-11-14T16:03:39;13.23;;;11.93;;
19842;SDS011;10082;51.038;6.992;2022-11-14T16:06:30;13.38;;;12.00;;
19842;SDS011;10082;51.038;6.992;2022-11-14T16:09:17;13.27;;;11.98;;
19842;SDS011;10082;51.038;6.992;2022-11-14T16:12:04;12.13;;;10.93;;
19842;SDS011;10082;51.038;6.992;2022-11-14T16:14:50;13.45;;;12.15;;
19842;SDS011;10082;51.038;6.992;2022-11-14T16:17:38;13.25;;;11.77;;
19842;SDS011;10082;51.038;6.992;2022-11-14T16:20:25;13.75;;;12.35;;
19842;SDS011;10082;51.038;6.992;2022-11-14T16:23:13;13.20;;;11.90;;
19842;SDS011;10082;51.038;6.992;2022-11-14T16:25:59;14.15;;;12.30;;
19842;SDS011;10082;51.038;6.992;2022-11-14T16:28:45;12.52;;;11.43;;
19842;SDS011;10082;51.038;6.992;2022-11-14T16:31:31;13.35;;;12.02;;
19842;SDS011;10082;51.038;6.992;2022-11-14T16:34:19;12.52;;;11.30;;
19842;SDS011;10082;51.038;6.992;2022-11-14T16:37:08;13.23;;;11.85;;
19842;SDS011;10082;51.038;6.992;2022-11-14T16:39:59;13.55;;;11.95;;
19842;SDS011;10082;51.038;6.992;2022-11-14T16:42:45;12.68;;;11.48;;
19842;SDS011;10082;51.038;6.992;2022-11-14T16:45:31;12.68;;;11.48;;
19842;SDS011;10082;51.038;6.992;2022-11-14T16:48:16;12.50;;;11.30;;
19842;SDS011;10082;51.038;6.992;2022-11-14T16:51:02;13.60;;;12.30;;
19842;SDS011;10082;51.038;6.992;2022-11-14T16:53:52;13.60;;;11.68;;
19842;SDS011;10082;51.038;6.992;2022-11-14T16:56:40;13.45;;;12.25;;
19842;SDS011;10082;51.038;6.992;2022-11-14T16:59:26;13.40;;;12.10;;
19842;SDS011;10082;51.038;6.992;2022-11-14T17:02:13;13.55;;;12.20;;
19842;SDS011;10082;51.038;6.992;2022-11-14T17:04:59;13.90;;;12.52;;
19842;SDS011;10082;51.038;6.992;2022-11-14T17:10:40;13.57;;;12.27;;
19842;SDS011;10082;51.038;6.992;2022-11-14T17:13:29;13.00;;;11.70;;
19842;SDS011;10082;51.038;6.992;2022-11-14T17:16:15;13.95;;;12.60;;
19842;SDS011;10082;51.038;6.992;2022-11-14T17:19:01;14.50;;;12.95;;
19842;SDS011;10082;51.038;6.992;2022-11-14T17:21:47;13.90;;;12.50;;
19842;SDS011;10082;51.038;6.992;2022-11-14T17:24:32;13.80;;;12.32;;
19842;SDS011;10082;51.038;6.992;2022-11-14T17:27:18;14.48;;;13.07;;
19842;SDS011;10082;51.038;6.992;2022-11-14T17:30:08;13.70;;;12.30;;
19842;SDS011;10082;51.038;6.992;2022-11-14T17:32:55;14.27;;;12.88;;
19842;SDS011;10082;51.038;6.992;2022-11-14T17:35:41;13.63;;;12.43;;
19842;SDS011;10082;51.038;6.992;2022-11-14T17:38:29;14.25;;;12.85;;
19842;SDS011;10082;51.038;6.992;2022-11-14T17:41:16;14.30;;;12.90;;
19842;SDS011;10082;51.038;6.992;2022-11-14T17:44:02;15.07;;;12.93;;
19842;SDS011;10082;51.038;6.992;2022-11-14T17:46:49;15.05;;;13.45;;
19842;SDS011;10082;51.038;6.992;2022-11-14T17:49:36;14.43;;;13.02;;
19842;SDS011;10082;51.038;6.992;2022-11-14T17:52:22;14.52;;;13.13;;
19842;SDS011;10082;51.038;6.992;2022-11-14T17:55:07;14.13;;;12.73;;
19842;SDS011;10082;51.038;6.992;2022-11-14T17:57:53;13.90;;;12.60;;
19842;SDS011;10082;51.038;6.992;2022-11-14T18:00:38;14.38;;;12.88;;
19842;SDS011;10082;51.038;6.992;2022-11-14T18:03:26;14.45;;;13.07;;
19842;SDS011;10082;51.038;6.992;2022-11-14T18:06:12;14.80;;;13.35;;
19842;SDS011;10082;51.038;6.992;2022-11-14T18:08:59;13.85;;;12.48;;
19842;SDS011;10082;51.038;6.992;2022-11-14T18:11:47;13.20;;;11.90;;
19842;SDS011;10082;51.038;6.992;2022-11-14T18:14:33;14.00;;;12.63;;
19842;SDS011;10082;51.038;6.992;2022-11-14T18:17:19;13.05;;;11.75;;
19842;SDS011;10082;51.038;6.992;2022-11-14T18:20:06;12.40;;;11.30;;
19842;SDS011;10082;51.038;6.992;2022-11-14T18:22:53;12.73;;;11.55;;
19842;SDS011;10082;51.038;6.992;2022-11-14T18:25:40;12.20;;;11.02;;
19842;SDS011;10082;51.038;6.992;2022-11-14T18:28:26;12.63;;;11.43;;
19842;SDS011;10082;51.038;6.992;2022-11-14T18:31:11;12.73;;;11.52;;